sensor_id;sensor_type;location;lat;lon;timestamp;temperature;humidity
49238;DHT22;35069;47.906;1.892;2023-01-01T00:01:23;14.80;90.00
49238;DHT22;35069;47.906;1.892;2023-01-01T00:03:52;14.80;90.10
49238;DHT22;35069;47.906;1.892;2023-01-01T00:06:18;14.80;90.20
49238;DHT22;35069;47.906;1.892;2023-01-01T00:08:44;14.80;90.30
49238;DHT22;35069;47.906;1.892;2023-01-01T00:11:12;14.80;90.50
49238;DHT22;35069;47.906;1.892;2023-01-01T00:13:40;14.90;90.60
49238;DHT22;35069;47.906;1.892;2023-01-01T00:16:11;14.90;90.60
49238;DHT22;35069;47.906;1.892;2023-01-01T00:18:37;14.90;90.60
49238;DHT22;35069;47.906;1.892;2023-01-01T00:21:12;14.90;90.60
49238;DHT22;35069;47.906;1.892;2023-01-01T00:23:38;14.90;90.70
49238;DHT22;35069;47.906;1.892;2023-01-01T00:26:17;14.90;90.70
49238;DHT22;35069;47.906;1.892;2023-01-01T00:28:44;14.90;90.80
49238;DHT22;35069;47.906;1.892;2023-01-01T00:31:12;15.00;90.90
49238;DHT22;35069;47.906;1.892;2023-01-01T00:33:40;15.00;90.90
49238;DHT22;35069;47.906;1.892;2023-01-01T00:36:10;15.00;90.90
49238;DHT22;35069;47.906;1.892;2023-01-01T00:38:37;15.00;90.90
49238;DHT22;35069;47.906;1.892;2023-01-01T00:41:03;15.00;91.00
49238;DHT22;35069;47.906;1.892;2023-01-01T00:43:28;15.00;91.10
49238;DHT22;35069;47.906;1.892;2023-01-01T00:45:54;15.00;91.10
49238;DHT22;35069;47.906;1.892;2023-01-01T00:48:20;15.00;91.20
49238;DHT22;35069;47.906;1.892;2023-01-01T00:50:46;15.00;91.20
49238;DHT22;35069;47.906;1.892;2023-01-01T00:53:12;15.00;91.30
49238;DHT22;35069;47.906;1.892;2023-01-01T00:55:39;15.00;91.60
49238;DHT22;35069;47.906;1.892;2023-01-01T00:58:04;14.90;91.50
49238;DHT22;35069;47.906;1.892;2023-01-01T01:00:30;14.90;91.50
49238;DHT22;35069;47.906;1.892;2023-01-01T01:02:55;14.90;91.60
49238;DHT22;35069;47.906;1.892;2023-01-01T01:05:23;14.90;91.80
49238;DHT22;35069;47.906;1.892;2023-01-01T01:07:49;14.90;91.90
49238;DHT22;35069;47.906;1.892;2023-01-01T01:10:15;14.80;91.90
49238;DHT22;35069;47.906;1.892;2023-01-01T01:12:41;14.80;92.00
49238;DHT22;35069;47.906;1.892;2023-01-01T01:15:08;14.80;92.10
49238;DHT22;35069;47.906;1.892;2023-01-01T01:17:35;14.70;92.20
49238;DHT22;35069;47.906;1.892;2023-01-01T01:20:03;14.70;92.30
49238;DHT22;35069;47.906;1.892;2023-01-01T01:22:28;14.70;92.30
49238;DHT22;35069;47.906;1.892;2023-01-01T01:24:54;14.70;92.40
49238;DHT22;35069;47.906;1.892;2023-01-01T01:27:20;14.70;92.50
49238;DHT22;35069;47.906;1.892;2023-01-01T01:29:46;14.70;92.60
49238;DHT22;35069;47.906;1.892;2023-01-01T01:32:11;14.70;92.70
49238;DHT22;35069;47.906;1.892;2023-01-01T01:34:37;14.70;92.80
49238;DHT22;35069;47.906;1.892;2023-01-01T01:37:03;14.60;92.80
49238;DHT22;35069;47.906;1.892;2023-01-01T01:39:31;14.60;92.90
49238;DHT22;35069;47.906;1.892;2023-01-01T01:41:59;14.60;93.10
49238;DHT22;35069;47.906;1.892;2023-01-01T01:47:27;14.60;93.30
49238;DHT22;35069;47.906;1.892;2023-01-01T01:50:16;14.60;93.30
49238;DHT22;35069;47.906;1.892;2023-01-01T01:52:46;14.60;93.50
49238;DHT22;35069;47.906;1.892;2023-01-01T01:55:21;14.60;93.50
49238;DHT22;35069;47.906;1.892;2023-01-01T01:57:47;14.60;93.60
49238;DHT22;35069;47.906;1.892;2023-01-01T02:06:15;14.60;93.90
49238;DHT22;35069;47.906;1.892;2023-01-01T02:08:41;14.60;93.90
49238;DHT22;35069;47.906;1.892;2023-01-01T02:11:15;14.60;94.10
49238;DHT22;35069;47.906;1.892;2023-01-01T02:13:43;14.70;94.10
49238;DHT22;35069;47.906;1.892;2023-01-01T02:16:42;14.60;94.10
49238;DHT22;35069;47.906;1.892;2023-01-01T02:22:09;14.60;94.20
49238;DHT22;35069;47.906;1.892;2023-01-01T02:25:14;14.60;94.40
49238;DHT22;35069;47.906;1.892;2023-01-01T02:30:57;14.60;94.70
49238;DHT22;35069;47.906;1.892;2023-01-01T02:33:36;14.60;94.70
49238;DHT22;35069;47.906;1.892;2023-01-01T02:36:03;14.60;94.80
49238;DHT22;35069;47.906;1.892;2023-01-01T02:38:30;14.60;94.80
49238;DHT22;35069;47.906;1.892;2023-01-01T02:41:00;14.50;94.80
49238;DHT22;35069;47.906;1.892;2023-01-01T02:43:27;14.50;95.00
49238;DHT22;35069;47.906;1.892;2023-01-01T02:45:53;14.50;95.10
49238;DHT22;35069;47.906;1.892;2023-01-01T02:48:48;14.50;95.20
49238;DHT22;35069;47.906;1.892;2023-01-01T02:54:19;14.40;95.50
49238;DHT22;35069;47.906;1.892;2023-01-01T03:16:02;14.30;96.70
49238;DHT22;35069;47.906;1.892;2023-01-01T03:18:53;14.30;96.70
49238;DHT22;35069;47.906;1.892;2023-01-01T03:21:57;14.30;96.90
49238;DHT22;35069;47.906;1.892;2023-01-01T03:24:39;14.40;97.10
49238;DHT22;35069;47.906;1.892;2023-01-01T03:27:20;14.30;97.00
49238;DHT22;35069;47.906;1.892;2023-01-01T03:29:58;14.40;97.10
49238;DHT22;35069;47.906;1.892;2023-01-01T03:32:48;14.30;97.10
49238;DHT22;35069;47.906;1.892;2023-01-01T03:38:17;14.30;97.30
49238;DHT22;35069;47.906;1.892;2023-01-01T03:40:46;14.30;97.40
49238;DHT22;35069;47.906;1.892;2023-01-01T03:46:21;14.30;97.50
49238;DHT22;35069;47.906;1.892;2023-01-01T03:48:50;14.30;97.70
49238;DHT22;35069;47.906;1.892;2023-01-01T03:56:51;14.20;98.00
49238;DHT22;35069;47.906;1.892;2023-01-01T03:59:31;14.20;98.00
49238;DHT22;35069;47.906;1.892;2023-01-01T04:02:01;14.20;98.10
49238;DHT22;35069;47.906;1.892;2023-01-01T04:04:28;14.20;98.10
49238;DHT22;35069;47.906;1.892;2023-01-01T04:06:59;14.20;98.20
49238;DHT22;35069;47.906;1.892;2023-01-01T04:09:34;14.20;98.40
49238;DHT22;35069;47.906;1.892;2023-01-01T04:12:01;14.20;98.50
49238;DHT22;35069;47.906;1.892;2023-01-01T04:14:32;14.10;98.60
49238;DHT22;35069;47.906;1.892;2023-01-01T04:16:58;14.10;98.70
49238;DHT22;35069;47.906;1.892;2023-01-01T04:19:25;14.10;98.80
49238;DHT22;35069;47.906;1.892;2023-01-01T04:21:51;14.10;98.90
49238;DHT22;35069;47.906;1.892;2023-01-01T04:24:35;14.10;99.00
49238;DHT22;35069;47.906;1.892;2023-01-01T04:27:07;14.10;99.20
49238;DHT22;35069;47.906;1.892;2023-01-01T04:29:35;14.00;99.20
49238;DHT22;35069;47.906;1.892;2023-01-01T04:32:10;14.00;99.40
49238;DHT22;35069;47.906;1.892;2023-01-01T04:34:36;14.00;99.50
49238;DHT22;35069;47.906;1.892;2023-01-01T04:37:02;14.00;99.50
49238;DHT22;35069;47.906;1.892;2023-01-01T04:39:27;13.90;99.60
49238;DHT22;35069;47.906;1.892;2023-01-01T04:41:53;13.90;99.70
49238;DHT22;35069;47.906;1.892;2023-01-01T04:44:19;13.90;99.80
49238;DHT22;35069;47.906;1.892;2023-01-01T04:46:44;13.90;99.90
49238;DHT22;35069;47.906;1.892;2023-01-01T04:49:10;13.90;99.90
49238;DHT22;35069;47.906;1.892;2023-01-01T04:51:36;13.80;99.90
49238;DHT22;35069;47.906;1.892;2023-01-01T04:54:01;13.80;99.90
49238;DHT22;35069;47.906;1.892;2023-01-01T04:56:27;13.80;99.90
49238;DHT22;35069;47.906;1.892;2023-01-01T04:58:53;13.80;99.90
49238;DHT22;35069;47.906;1.892;2023-01-01T05:01:24;13.80;99.90
49238;DHT22;35069;47.906;1.892;2023-01-01T05:03:50;13.80;99.90
49238;DHT22;35069;47.906;1.892;2023-01-01T05:06:16;13.80;99.90
49238;DHT22;35069;47.906;1.892;2023-01-01T05:08:44;13.80;99.90
49238;DHT22;35069;47.906;1.892;2023-01-01T05:11:13;13.80;99.90
49238;DHT22;35069;47.906;1.892;2023-01-01T05:13:41;13.80;99.90
49238;DHT22;35069;47.906;1.892;2023-01-01T05:16:09;13.80;99.90
49238;DHT22;35069;47.906;1.892;2023-01-01T05:18:42;13.80;99.90
49238;DHT22;35069;47.906;1.892;2023-01-01T05:24:37;13.80;99.90
49238;DHT22;35069;47.906;1.892;2023-01-01T05:27:03;13.80;99.90
49238;DHT22;35069;47.906;1.892;2023-01-01T05:29:29;13.90;99.90
49238;DHT22;35069;47.906;1.892;2023-01-01T05:31:54;13.90;99.90
49238;DHT22;35069;47.906;1.892;2023-01-01T05:34:20;13.90;99.90
49238;DHT22;35069;47.906;1.892;2023-01-01T05:36:46;13.90;99.90
49238;DHT22;35069;47.906;1.892;2023-01-01T05:39:12;13.90;99.90
49238;DHT22;35069;47.906;1.892;2023-01-01T05:41:38;13.90;99.90
49238;DHT22;35069;47.906;1.892;2023-01-01T05:44:07;13.90;99.90
49238;DHT22;35069;47.906;1.892;2023-01-01T05:46:34;13.90;99.90
49238;DHT22;35069;47.906;1.892;2023-01-01T05:49:00;13.90;99.90
49238;DHT22;35069;47.906;1.892;2023-01-01T05:51:27;13.90;99.90
49238;DHT22;35069;47.906;1.892;2023-01-01T05:53:54;13.90;99.90
49238;DHT22;35069;47.906;1.892;2023-01-01T05:56:20;13.90;99.90
49238;DHT22;35069;47.906;1.892;2023-01-01T05:58:46;13.90;99.90
49238;DHT22;35069;47.906;1.892;2023-01-01T06:01:17;13.90;99.90
49238;DHT22;35069;47.906;1.892;2023-01-01T06:03:43;13.90;99.90
49238;DHT22;35069;47.906;1.892;2023-01-01T06:06:13;13.90;99.90
49238;DHT22;35069;47.906;1.892;2023-01-01T06:08:39;13.90;99.90
49238;DHT22;35069;47.906;1.892;2023-01-01T06:11:09;13.90;99.90
49238;DHT22;35069;47.906;1.892;2023-01-01T06:13:36;13.90;99.90
49238;DHT22;35069;47.906;1.892;2023-01-01T06:16:02;13.90;99.90
49238;DHT22;35069;47.906;1.892;2023-01-01T06:18:30;13.90;99.90
49238;DHT22;35069;47.906;1.892;2023-01-01T06:21:20;13.90;99.90
49238;DHT22;35069;47.906;1.892;2023-01-01T06:23:46;13.90;99.90
49238;DHT22;35069;47.906;1.892;2023-01-01T06:26:14;13.90;99.90
49238;DHT22;35069;47.906;1.892;2023-01-01T06:28:42;13.80;99.90
49238;DHT22;35069;47.906;1.892;2023-01-01T06:31:09;13.80;99.90
49238;DHT22;35069;47.906;1.892;2023-01-01T06:33:36;13.80;99.90
49238;DHT22;35069;47.906;1.892;2023-01-01T06:36:04;13.90;99.90
49238;DHT22;35069;47.906;1.892;2023-01-01T06:38:31;13.90;99.90
49238;DHT22;35069;47.906;1.892;2023-01-01T06:40:58;13.90;99.90
49238;DHT22;35069;47.906;1.892;2023-01-01T06:43:24;13.80;99.90
49238;DHT22;35069;47.906;1.892;2023-01-01T06:46:11;13.80;99.90
49238;DHT22;35069;47.906;1.892;2023-01-01T06:48:38;13.80;99.90
49238;DHT22;35069;47.906;1.892;2023-01-01T06:51:06;13.80;99.90
49238;DHT22;35069;47.906;1.892;2023-01-01T06:53:32;13.80;99.90
49238;DHT22;35069;47.906;1.892;2023-01-01T06:55:57;13.80;99.90
49238;DHT22;35069;47.906;1.892;2023-01-01T06:58:23;13.80;99.90
49238;DHT22;35069;47.906;1.892;2023-01-01T07:00:49;13.70;99.90
49238;DHT22;35069;47.906;1.892;2023-01-01T07:03:14;13.70;99.90
49238;DHT22;35069;47.906;1.892;2023-01-01T07:05:40;13.70;99.90
49238;DHT22;35069;47.906;1.892;2023-01-01T07:08:05;13.70;99.90
49238;DHT22;35069;47.906;1.892;2023-01-01T07:10:31;13.70;99.90
49238;DHT22;35069;47.906;1.892;2023-01-01T07:12:57;13.60;99.90
49238;DHT22;35069;47.906;1.892;2023-01-01T07:15:22;13.60;99.90
49238;DHT22;35069;47.906;1.892;2023-01-01T07:17:48;13.60;99.90
49238;DHT22;35069;47.906;1.892;2023-01-01T07:20:13;13.60;99.90
49238;DHT22;35069;47.906;1.892;2023-01-01T07:22:39;13.60;99.90
49238;DHT22;35069;47.906;1.892;2023-01-01T07:25:06;13.60;99.90
49238;DHT22;35069;47.906;1.892;2023-01-01T07:27:31;13.60;99.90
49238;DHT22;35069;47.906;1.892;2023-01-01T07:29:57;13.60;99.90
49238;DHT22;35069;47.906;1.892;2023-01-01T07:32:23;13.60;99.90
49238;DHT22;35069;47.906;1.892;2023-01-01T07:34:48;13.60;99.90
49238;DHT22;35069;47.906;1.892;2023-01-01T07:37:14;13.60;99.90
49238;DHT22;35069;47.906;1.892;2023-01-01T07:39:39;13.60;99.90
49238;DHT22;35069;47.906;1.892;2023-01-01T07:42:07;13.60;99.90
49238;DHT22;35069;47.906;1.892;2023-01-01T07:44:33;13.60;99.90
49238;DHT22;35069;47.906;1.892;2023-01-01T07:47:31;13.60;99.90
49238;DHT22;35069;47.906;1.892;2023-01-01T07:49:57;13.60;99.90
49238;DHT22;35069;47.906;1.892;2023-01-01T07:52:25;13.60;99.90
49238;DHT22;35069;47.906;1.892;2023-01-01T07:54:53;13.60;99.90
49238;DHT22;35069;47.906;1.892;2023-01-01T07:57:19;13.60;99.90
49238;DHT22;35069;47.906;1.892;2023-01-01T07:59:44;13.60;99.90
49238;DHT22;35069;47.906;1.892;2023-01-01T08:02:11;13.60;99.90
49238;DHT22;35069;47.906;1.892;2023-01-01T08:04:37;13.60;99.90
49238;DHT22;35069;47.906;1.892;2023-01-01T08:07:03;13.60;99.90
49238;DHT22;35069;47.906;1.892;2023-01-01T08:09:28;13.60;99.90
49238;DHT22;35069;47.906;1.892;2023-01-01T08:11:54;13.60;99.90
49238;DHT22;35069;47.906;1.892;2023-01-01T08:14:23;13.60;99.90
49238;DHT22;35069;47.906;1.892;2023-01-01T08:16:50;13.60;99.90
49238;DHT22;35069;47.906;1.892;2023-01-01T08:19:15;13.60;99.90
49238;DHT22;35069;47.906;1.892;2023-01-01T08:21:41;13.50;99.90
49238;DHT22;35069;47.906;1.892;2023-01-01T08:24:07;13.50;99.90
49238;DHT22;35069;47.906;1.892;2023-01-01T08:26:34;13.60;99.90
49238;DHT22;35069;47.906;1.892;2023-01-01T08:29:05;13.60;99.90
49238;DHT22;35069;47.906;1.892;2023-01-01T08:31:32;13.60;99.90
49238;DHT22;35069;47.906;1.892;2023-01-01T08:33:58;13.60;99.90
49238;DHT22;35069;47.906;1.892;2023-01-01T08:36:24;13.60;99.90
49238;DHT22;35069;47.906;1.892;2023-01-01T08:38:49;13.60;99.90
49238;DHT22;35069;47.906;1.892;2023-01-01T08:41:15;13.60;99.90
49238;DHT22;35069;47.906;1.892;2023-01-01T08:43:41;13.70;99.90
49238;DHT22;35069;47.906;1.892;2023-01-01T08:46:06;13.70;99.90
49238;DHT22;35069;47.906;1.892;2023-01-01T08:48:32;13.70;99.90
49238;DHT22;35069;47.906;1.892;2023-01-01T08:50:59;13.70;99.90
49238;DHT22;35069;47.906;1.892;2023-01-01T08:53:26;13.60;99.90
49238;DHT22;35069;47.906;1.892;2023-01-01T08:56:03;13.60;99.90
49238;DHT22;35069;47.906;1.892;2023-01-01T08:58:29;13.60;99.90
49238;DHT22;35069;47.906;1.892;2023-01-01T09:00:55;13.60;99.90
49238;DHT22;35069;47.906;1.892;2023-01-01T09:03:21;13.60;99.90
49238;DHT22;35069;47.906;1.892;2023-01-01T09:05:47;13.50;99.90
49238;DHT22;35069;47.906;1.892;2023-01-01T09:08:13;13.50;99.90
49238;DHT22;35069;47.906;1.892;2023-01-01T09:10:40;13.50;99.90
49238;DHT22;35069;47.906;1.892;2023-01-01T09:13:11;13.50;99.90
49238;DHT22;35069;47.906;1.892;2023-01-01T09:15:37;13.50;99.90
49238;DHT22;35069;47.906;1.892;2023-01-01T09:18:03;13.50;99.90
49238;DHT22;35069;47.906;1.892;2023-01-01T09:20:29;13.50;99.90
49238;DHT22;35069;47.906;1.892;2023-01-01T09:22:55;13.60;99.90
49238;DHT22;35069;47.906;1.892;2023-01-01T09:25:39;13.50;99.90
49238;DHT22;35069;47.906;1.892;2023-01-01T09:28:07;13.60;99.90
49238;DHT22;35069;47.906;1.892;2023-01-01T09:30:33;13.50;99.90
49238;DHT22;35069;47.906;1.892;2023-01-01T09:33:00;13.60;99.90
49238;DHT22;35069;47.906;1.892;2023-01-01T09:35:26;13.60;99.90
49238;DHT22;35069;47.906;1.892;2023-01-01T09:37:52;13.60;99.90
49238;DHT22;35069;47.906;1.892;2023-01-01T09:46:09;13.80;99.90
49238;DHT22;35069;47.906;1.892;2023-01-01T09:48:51;13.80;99.90
49238;DHT22;35069;47.906;1.892;2023-01-01T09:51:20;13.80;99.90
49238;DHT22;35069;47.906;1.892;2023-01-01T09:53:52;13.80;99.90
49238;DHT22;35069;47.906;1.892;2023-01-01T09:56:24;13.80;99.90
49238;DHT22;35069;47.906;1.892;2023-01-01T09:58:51;13.80;99.90
49238;DHT22;35069;47.906;1.892;2023-01-01T10:05:18;13.70;99.90
49238;DHT22;35069;47.906;1.892;2023-01-01T10:07:52;13.70;99.90
49238;DHT22;35069;47.906;1.892;2023-01-01T10:10:34;13.70;99.90
49238;DHT22;35069;47.906;1.892;2023-01-01T10:13:31;13.70;99.90
49238;DHT22;35069;47.906;1.892;2023-01-01T10:16:03;13.70;99.90
49238;DHT22;35069;47.906;1.892;2023-01-01T10:18:35;13.70;99.90
49238;DHT22;35069;47.906;1.892;2023-01-01T10:23:54;13.70;99.90
49238;DHT22;35069;47.906;1.892;2023-01-01T10:26:24;13.70;99.90
49238;DHT22;35069;47.906;1.892;2023-01-01T10:28:55;13.70;99.90
49238;DHT22;35069;47.906;1.892;2023-01-01T10:31:34;13.80;99.90
49238;DHT22;35069;47.906;1.892;2023-01-01T10:47:29;14.10;99.90
49238;DHT22;35069;47.906;1.892;2023-01-01T10:50:03;14.40;99.90
49238;DHT22;35069;47.906;1.892;2023-01-01T10:52:40;14.30;99.90
49238;DHT22;35069;47.906;1.892;2023-01-01T10:55:18;14.20;99.90
49238;DHT22;35069;47.906;1.892;2023-01-01T10:57:44;14.20;99.90
49238;DHT22;35069;47.906;1.892;2023-01-01T11:00:20;14.10;99.90
49238;DHT22;35069;47.906;1.892;2023-01-01T11:02:55;14.10;99.90
49238;DHT22;35069;47.906;1.892;2023-01-01T11:05:29;14.00;99.90
49238;DHT22;35069;47.906;1.892;2023-01-01T11:07:55;14.00;99.90
49238;DHT22;35069;47.906;1.892;2023-01-01T11:10:23;13.90;99.90
49238;DHT22;35069;47.906;1.892;2023-01-01T11:12:50;13.90;99.90
49238;DHT22;35069;47.906;1.892;2023-01-01T11:15:29;13.90;99.90
49238;DHT22;35069;47.906;1.892;2023-01-01T11:18:06;13.90;99.90
49238;DHT22;35069;47.906;1.892;2023-01-01T11:20:35;13.80;99.90
49238;DHT22;35069;47.906;1.892;2023-01-01T11:23:17;13.80;99.90
49238;DHT22;35069;47.906;1.892;2023-01-01T11:25:55;13.80;99.90
49238;DHT22;35069;47.906;1.892;2023-01-01T11:28:21;13.80;99.90
49238;DHT22;35069;47.906;1.892;2023-01-01T11:31:11;13.80;99.90
49238;DHT22;35069;47.906;1.892;2023-01-01T11:33:52;13.80;99.90
49238;DHT22;35069;47.906;1.892;2023-01-01T11:36:32;13.80;99.90
49238;DHT22;35069;47.906;1.892;2023-01-01T11:39:18;13.80;99.90
49238;DHT22;35069;47.906;1.892;2023-01-01T11:41:46;13.70;99.90
49238;DHT22;35069;47.906;1.892;2023-01-01T11:46:59;13.80;99.90
49238;DHT22;35069;47.906;1.892;2023-01-01T11:49:26;13.70;99.90
49238;DHT22;35069;47.906;1.892;2023-01-01T11:51:53;13.80;99.90
49238;DHT22;35069;47.906;1.892;2023-01-01T11:54:23;13.80;99.90
49238;DHT22;35069;47.906;1.892;2023-01-01T11:56:53;13.80;99.90
49238;DHT22;35069;47.906;1.892;2023-01-01T11:59:24;13.80;99.90
49238;DHT22;35069;47.906;1.892;2023-01-01T12:02:02;13.70;99.90
49238;DHT22;35069;47.906;1.892;2023-01-01T12:04:35;13.80;99.90
49238;DHT22;35069;47.906;1.892;2023-01-01T12:07:05;13.80;99.90
49238;DHT22;35069;47.906;1.892;2023-01-01T12:09:42;13.80;99.90
49238;DHT22;35069;47.906;1.892;2023-01-01T12:12:27;13.70;99.90
49238;DHT22;35069;47.906;1.892;2023-01-01T12:15:06;13.70;99.90
49238;DHT22;35069;47.906;1.892;2023-01-01T12:17:57;13.70;99.90
49238;DHT22;35069;47.906;1.892;2023-01-01T12:20:27;13.80;99.90
49238;DHT22;35069;47.906;1.892;2023-01-01T12:22:55;13.70;99.90
49238;DHT22;35069;47.906;1.892;2023-01-01T12:25:22;13.70;99.90
49238;DHT22;35069;47.906;1.892;2023-01-01T12:30:44;13.70;99.90
49238;DHT22;35069;47.906;1.892;2023-01-01T12:33:23;13.70;99.90
49238;DHT22;35069;47.906;1.892;2023-01-01T12:36:14;13.60;99.90
49238;DHT22;35069;47.906;1.892;2023-01-01T12:42:01;13.60;99.90
49238;DHT22;35069;47.906;1.892;2023-01-01T12:45:13;13.60;99.90
49238;DHT22;35069;47.906;1.892;2023-01-01T12:58:32;13.70;99.90
49238;DHT22;35069;47.906;1.892;2023-01-01T13:01:10;13.70;99.90
49238;DHT22;35069;47.906;1.892;2023-01-01T13:03:50;13.70;99.90
49238;DHT22;35069;47.906;1.892;2023-01-01T13:06:19;13.70;99.90
49238;DHT22;35069;47.906;1.892;2023-01-01T13:08:54;13.60;99.90
49238;DHT22;35069;47.906;1.892;2023-01-01T13:11:22;13.60;99.90
49238;DHT22;35069;47.906;1.892;2023-01-01T13:13:49;13.60;99.90
49238;DHT22;35069;47.906;1.892;2023-01-01T13:16:31;13.60;99.90
49238;DHT22;35069;47.906;1.892;2023-01-01T13:18:58;13.60;99.90
49238;DHT22;35069;47.906;1.892;2023-01-01T13:21:25;13.60;99.90
49238;DHT22;35069;47.906;1.892;2023-01-01T13:23:53;13.60;99.90
49238;DHT22;35069;47.906;1.892;2023-01-01T13:34:31;13.60;99.90
49238;DHT22;35069;47.906;1.892;2023-01-01T13:39:59;13.60;99.90
49238;DHT22;35069;47.906;1.892;2023-01-01T13:45:36;13.50;99.90
49238;DHT22;35069;47.906;1.892;2023-01-01T13:48:28;13.50;99.90
49238;DHT22;35069;47.906;1.892;2023-01-01T14:04:46;13.30;99.90
49238;DHT22;35069;47.906;1.892;2023-01-01T14:10:20;13.20;99.90
49238;DHT22;35069;47.906;1.892;2023-01-01T14:12:47;13.20;99.90
49238;DHT22;35069;47.906;1.892;2023-01-01T14:15:24;13.20;99.90
49238;DHT22;35069;47.906;1.892;2023-01-01T14:17:52;13.30;99.90
49238;DHT22;35069;47.906;1.892;2023-01-01T14:20:21;13.30;99.90
49238;DHT22;35069;47.906;1.892;2023-01-01T14:22:48;13.30;99.90
49238;DHT22;35069;47.906;1.892;2023-01-01T14:25:24;13.30;99.90
49238;DHT22;35069;47.906;1.892;2023-01-01T14:27:55;13.30;99.90
49238;DHT22;35069;47.906;1.892;2023-01-01T14:30:22;13.30;99.90
49238;DHT22;35069;47.906;1.892;2023-01-01T14:32:56;13.30;99.90
49238;DHT22;35069;47.906;1.892;2023-01-01T14:35:21;13.30;99.90
49238;DHT22;35069;47.906;1.892;2023-01-01T14:37:47;13.30;99.90
49238;DHT22;35069;47.906;1.892;2023-01-01T14:40:24;13.30;99.90
49238;DHT22;35069;47.906;1.892;2023-01-01T14:43:04;13.30;99.90
49238;DHT22;35069;47.906;1.892;2023-01-01T14:45:35;13.20;99.90
49238;DHT22;35069;47.906;1.892;2023-01-01T14:48:05;13.20;99.90
49238;DHT22;35069;47.906;1.892;2023-01-01T14:50:32;13.20;99.90
49238;DHT22;35069;47.906;1.892;2023-01-01T14:53:12;13.30;99.90
49238;DHT22;35069;47.906;1.892;2023-01-01T14:55:43;13.30;99.90
49238;DHT22;35069;47.906;1.892;2023-01-01T14:58:19;13.30;99.90
49238;DHT22;35069;47.906;1.892;2023-01-01T15:00:47;13.40;99.90
49238;DHT22;35069;47.906;1.892;2023-01-01T15:03:15;13.40;99.90
49238;DHT22;35069;47.906;1.892;2023-01-01T15:05:43;13.30;99.90
49238;DHT22;35069;47.906;1.892;2023-01-01T15:08:22;13.40;99.90
49238;DHT22;35069;47.906;1.892;2023-01-01T15:10:49;13.40;99.90
49238;DHT22;35069;47.906;1.892;2023-01-01T15:15:48;13.50;99.90
49238;DHT22;35069;47.906;1.892;2023-01-01T15:20:58;13.60;99.90
49238;DHT22;35069;47.906;1.892;2023-01-01T15:23:24;13.60;99.90
49238;DHT22;35069;47.906;1.892;2023-01-01T15:29:16;13.60;99.90
49238;DHT22;35069;47.906;1.892;2023-01-01T15:31:49;13.70;99.90
49238;DHT22;35069;47.906;1.892;2023-01-01T15:34:23;13.70;99.90
49238;DHT22;35069;47.906;1.892;2023-01-01T15:36:50;13.70;99.90
49238;DHT22;35069;47.906;1.892;2023-01-01T15:39:16;13.70;99.90
49238;DHT22;35069;47.906;1.892;2023-01-01T15:46:46;13.70;99.90
49238;DHT22;35069;47.906;1.892;2023-01-01T15:49:26;13.70;99.90
49238;DHT22;35069;47.906;1.892;2023-01-01T15:51:58;13.70;99.90
49238;DHT22;35069;47.906;1.892;2023-01-01T15:54:25;13.60;99.90
49238;DHT22;35069;47.906;1.892;2023-01-01T15:56:51;13.60;99.90
49238;DHT22;35069;47.906;1.892;2023-01-01T15:59:25;13.60;99.90
49238;DHT22;35069;47.906;1.892;2023-01-01T16:01:51;13.60;99.90
49238;DHT22;35069;47.906;1.892;2023-01-01T16:04:26;13.50;99.90
49238;DHT22;35069;47.906;1.892;2023-01-01T16:06:53;13.50;99.90
49238;DHT22;35069;47.906;1.892;2023-01-01T16:09:20;13.50;99.90
49238;DHT22;35069;47.906;1.892;2023-01-01T16:11:51;13.50;99.90
49238;DHT22;35069;47.906;1.892;2023-01-01T16:14:17;13.50;99.90
49238;DHT22;35069;47.906;1.892;2023-01-01T16:16:54;13.60;99.90
49238;DHT22;35069;47.906;1.892;2023-01-01T16:19:23;13.60;99.90
49238;DHT22;35069;47.906;1.892;2023-01-01T16:21:52;13.60;99.90
49238;DHT22;35069;47.906;1.892;2023-01-01T16:24:21;13.70;99.90
49238;DHT22;35069;47.906;1.892;2023-01-01T16:26:54;13.70;99.90
49238;DHT22;35069;47.906;1.892;2023-01-01T16:29:22;13.70;99.90
49238;DHT22;35069;47.906;1.892;2023-01-01T16:31:49;13.70;99.90
49238;DHT22;35069;47.906;1.892;2023-01-01T16:34:15;13.80;99.90
49238;DHT22;35069;47.906;1.892;2023-01-01T16:36:44;13.80;99.90
49238;DHT22;35069;47.906;1.892;2023-01-01T16:39:10;13.80;99.90
49238;DHT22;35069;47.906;1.892;2023-01-01T16:41:42;13.80;99.90
49238;DHT22;35069;47.906;1.892;2023-01-01T16:44:13;13.80;99.90
49238;DHT22;35069;47.906;1.892;2023-01-01T16:46:46;13.80;99.90
49238;DHT22;35069;47.906;1.892;2023-01-01T16:49:12;13.80;99.90
49238;DHT22;35069;47.906;1.892;2023-01-01T16:51:37;13.90;99.90
49238;DHT22;35069;47.906;1.892;2023-01-01T16:54:05;13.90;99.90
49238;DHT22;35069;47.906;1.892;2023-01-01T16:56:31;14.00;99.90
49238;DHT22;35069;47.906;1.892;2023-01-01T16:58:57;14.00;99.90
49238;DHT22;35069;47.906;1.892;2023-01-01T17:01:23;14.00;99.90
49238;DHT22;35069;47.906;1.892;2023-01-01T17:03:49;14.00;99.90
49238;DHT22;35069;47.906;1.892;2023-01-01T17:06:16;14.00;99.90
49238;DHT22;35069;47.906;1.892;2023-01-01T17:08:41;14.10;99.90
49238;DHT22;35069;47.906;1.892;2023-01-01T17:11:13;14.10;99.90
49238;DHT22;35069;47.906;1.892;2023-01-01T17:13:54;14.10;99.90
49238;DHT22;35069;47.906;1.892;2023-01-01T17:16:25;14.10;99.90
49238;DHT22;35069;47.906;1.892;2023-01-01T17:18:55;14.10;99.90
49238;DHT22;35069;47.906;1.892;2023-01-01T17:21:21;14.10;99.90
49238;DHT22;35069;47.906;1.892;2023-01-01T17:23:50;14.20;99.90
49238;DHT22;35069;47.906;1.892;2023-01-01T17:26:18;14.20;99.90
49238;DHT22;35069;47.906;1.892;2023-01-01T17:28:46;14.20;99.90
49238;DHT22;35069;47.906;1.892;2023-01-01T17:31:14;14.20;99.90
49238;DHT22;35069;47.906;1.892;2023-01-01T17:33:41;14.20;99.90
49238;DHT22;35069;47.906;1.892;2023-01-01T17:36:08;14.20;99.90
49238;DHT22;35069;47.906;1.892;2023-01-01T17:38:34;14.30;99.90
49238;DHT22;35069;47.906;1.892;2023-01-01T17:41:08;14.30;99.90
49238;DHT22;35069;47.906;1.892;2023-01-01T17:43:38;14.30;99.90
49238;DHT22;35069;47.906;1.892;2023-01-01T17:46:14;14.30;99.90
49238;DHT22;35069;47.906;1.892;2023-01-01T17:48:43;14.30;99.90
49238;DHT22;35069;47.906;1.892;2023-01-01T17:51:12;14.30;99.90
49238;DHT22;35069;47.906;1.892;2023-01-01T17:53:40;14.30;99.90
49238;DHT22;35069;47.906;1.892;2023-01-01T17:56:08;14.30;99.90
49238;DHT22;35069;47.906;1.892;2023-01-01T17:58:34;14.30;99.90
49238;DHT22;35069;47.906;1.892;2023-01-01T18:03:39;14.30;99.90
49238;DHT22;35069;47.906;1.892;2023-01-01T18:06:07;14.30;99.90
49238;DHT22;35069;47.906;1.892;2023-01-01T18:08:42;14.30;99.90
49238;DHT22;35069;47.906;1.892;2023-01-01T18:11:08;14.30;99.90
49238;DHT22;35069;47.906;1.892;2023-01-01T18:13:43;14.40;99.90